Time;durP1;ratioP1;P1;durP2;ratioP2;P2;SDS_P1;SDS_P2;PMS_P1;PMS_P2;Temp;Humidity;BMP_temperature;BMP_pressure;BME280_temperature;BME280_humidity;BME280_pressure;Samples;Min_cycle;Max_cycle;Signal;HPM_P1;HPM_P2
2022/10/27 00:00:27;;;;;;;7.38;2.38;;;17.00;99.90;;;;;;5008599;28;20539;-65
2022/10/27 00:02:53;;;;;;;5.40;2.78;;;17.00;99.90;;;;;;5014894;28;20689;-66
2022/10/27 00:05:21;;;;;;;5.90;3.33;;;17.10;99.90;;;;;;5025086;28;20195;-66
2022/10/27 00:07:47;;;;;;;3.83;2.63;;;17.00;99.90;;;;;;5026606;28;20187;-65
2022/10/27 00:10:12;;;;;;;5.32;2.30;;;17.00;99.90;;;;;;5021322;28;20282;-66
2022/10/27 00:12:38;;;;;;;5.88;2.63;;;16.80;99.90;;;;;;5032528;28;20187;-65
2022/10/27 00:15:04;;;;;;;3.45;2.50;;;16.80;99.90;;;;;;5031503;28;20191;-65
2022/10/27 00:17:30;;;;;;;7.78;3.40;;;16.70;99.90;;;;;;5030713;28;20186;-65
2022/10/27 00:19:55;;;;;;;3.88;3.00;;;16.70;99.90;;;;;;5024637;28;20213;-65
2022/10/27 00:22:21;;;;;;;4.63;2.75;;;16.80;99.90;;;;;;5027594;28;20250;-65
2022/10/27 00:24:47;;;;;;;4.65;2.70;;;16.90;99.90;;;;;;5034110;28;20666;-66
2022/10/27 00:27:13;;;;;;;3.80;2.38;;;16.70;99.90;;;;;;5032165;28;20191;-64
2022/10/27 00:29:38;;;;;;;4.70;2.42;;;16.60;99.90;;;;;;5034295;28;20237;-64
2022/10/27 00:32:04;;;;;;;4.38;2.85;;;16.50;99.90;;;;;;5031804;28;20240;-65
2022/10/27 00:34:30;;;;;;;4.30;2.47;;;16.40;99.90;;;;;;5048282;28;20210;-65
2022/10/27 00:36:55;;;;;;;12.35;2.83;;;16.60;99.90;;;;;;5032612;28;20186;-64
2022/10/27 00:39:21;;;;;;;4.05;2.38;;;16.60;99.90;;;;;;5027708;28;20694;-65
2022/10/27 00:41:47;;;;;;;5.35;2.85;;;16.70;99.90;;;;;;5028672;28;20219;-64
2022/10/27 00:44:34;;;;;;;6.55;2.90;;;16.70;99.90;;;;;;5029107;28;20187;-65
2022/10/27 00:47:08;;;;;;;8.70;2.58;;;16.70;99.90;;;;;;5024717;28;20186;-64
2022/10/27 00:49:59;;;;;;;5.80;2.60;;;16.80;99.90;;;;;;5026044;28;20203;-64
2022/10/27 00:52:28;;;;;;;3.50;2.42;;;17.00;99.90;;;;;;5026146;28;20651;-64
2022/10/27 00:54:58;;;;;;;5.40;2.47;;;17.00;99.90;;;;;;5016097;28;20597;-65
2022/10/27 00:57:25;;;;;;;5.55;2.70;;;17.00;99.90;;;;;;5014836;28;20188;-64
2022/10/27 00:59:51;;;;;;;6.07;2.67;;;16.90;99.90;;;;;;5018175;28;20183;-64
2022/10/27 01:02:16;;;;;;;4.18;2.53;;;16.90;99.90;;;;;;5012564;28;20757;-65
2022/10/27 01:04:55;;;;;;;6.90;2.22;;;16.90;99.90;;;;;;5017621;28;20191;-65
2022/10/27 01:07:23;;;;;;;6.43;2.20;;;16.90;99.90;;;;;;5027969;28;20285;-66
2022/10/27 01:09:49;;;;;;;3.78;2.40;;;16.90;99.90;;;;;;5025847;28;20192;-66
2022/10/27 01:12:15;;;;;;;3.25;2.95;;;16.90;99.90;;;;;;5017281;28;20648;-65
2022/10/27 01:14:42;;;;;;;7.10;3.47;;;16.70;99.90;;;;;;5004211;28;20193;-64
2022/10/27 01:17:36;;;;;;;4.47;2.63;;;16.80;99.90;;;;;;5019317;28;20206;-65
2022/10/27 01:20:35;;;;;;;3.78;1.95;;;16.90;99.90;;;;;;5000588;28;20199;-64
2022/10/27 01:23:25;;;;;;;3.88;2.67;;;16.70;99.90;;;;;;5024128;28;20228;-64
2022/10/27 01:26:29;;;;;;;3.88;2.13;;;16.70;99.90;;;;;;5029417;28;20550;-64
2022/10/27 01:29:12;;;;;;;4.13;2.40;;;16.70;99.90;;;;;;5031107;28;20248;-64
2022/10/27 01:32:00;;;;;;;2.47;2.00;;;16.60;99.90;;;;;;5025347;28;20221;-65
2022/10/27 01:34:44;;;;;;;3.40;2.60;;;16.60;99.90;;;;;;5025949;28;20553;-64
2022/10/27 01:37:32;;;;;;;3.38;2.40;;;16.40;99.90;;;;;;5032589;28;20183;-65
2022/10/27 01:40:24;;;;;;;5.45;2.47;;;16.50;99.90;;;;;;5046985;28;20194;-66
2022/10/27 01:42:57;;;;;;;3.30;2.10;;;16.40;99.90;;;;;;5011500;28;20226;-67
2022/10/27 01:45:28;;;;;;;5.03;2.30;;;16.30;99.90;;;;;;5047615;28;20195;-64
2022/10/27 01:47:55;;;;;;;5.40;2.38;;;16.20;99.90;;;;;;5030768;28;20189;-65
2022/10/27 01:50:31;;;;;;;4.70;2.83;;;16.10;99.90;;;;;;4997912;28;20218;-65
2022/10/27 01:52:56;;;;;;;2.95;2.75;;;16.00;99.90;;;;;;5024301;28;20182;-65
2022/10/27 01:55:25;;;;;;;2.78;2.58;;;16.10;99.90;;;;;;5032240;28;20194;-65
2022/10/27 01:58:12;;;;;;;6.43;2.40;;;16.10;99.90;;;;;;5024225;28;20187;-65
2022/10/27 02:01:00;;;;;;;2.80;2.60;;;16.00;99.90;;;;;;5031072;28;20186;-65
2022/10/27 02:03:49;;;;;;;2.70;2.42;;;16.00;99.90;;;;;;5019631;28;20194;-65
2022/10/27 02:06:40;;;;;;;4.13;3.10;;;16.00;99.90;;;;;;5032062;28;20187;-65
2022/10/27 02:09:39;;;;;;;2.60;2.40;;;16.10;99.90;;;;;;5026834;28;20187;-66
2022/10/27 02:12:11;;;;;;;6.82;3.53;;;16.20;99.90;;;;;;5024257;28;20640;-65
2022/10/27 02:14:37;;;;;;;5.45;3.42;;;16.10;99.90;;;;;;5030989;28;20179;-65
2022/10/27 02:17:05;;;;;;;5.68;3.38;;;16.00;99.90;;;;;;5009491;28;20550;-65
2022/10/27 02:19:37;;;;;;;3.78;2.90;;;16.10;99.90;;;;;;5021441;28;20199;-67
2022/10/27 02:22:04;;;;;;;6.50;2.85;;;16.10;99.90;;;;;;5024602;28;20207;-65
2022/10/27 02:24:30;;;;;;;3.97;2.58;;;16.20;99.90;;;;;;5019515;28;20270;-65
2022/10/27 02:27:07;;;;;;;2.70;2.10;;;16.10;99.90;;;;;;5024258;28;20197;-65
2022/10/27 02:29:40;;;;;;;3.80;2.30;;;16.10;99.90;;;;;;5017703;28;20191;-65
2022/10/27 02:32:09;;;;;;;5.13;2.35;;;16.10;99.90;;;;;;5019975;28;20194;-65
2022/10/27 02:34:36;;;;;;;7.85;4.40;;;16.20;99.90;;;;;;5027437;28;20191;-65
2022/10/27 02:37:04;;;;;;;3.85;2.40;;;16.10;99.90;;;;;;5016942;28;20563;-65
2022/10/27 02:39:30;;;;;;;3.70;2.58;;;16.10;99.90;;;;;;5024244;28;20188;-65
2022/10/27 02:41:56;;;;;;;4.25;2.38;;;16.10;99.90;;;;;;5031512;28;20218;-66
2022/10/27 02:44:21;;;;;;;3.05;2.70;;;16.10;99.90;;;;;;5028655;28;20205;-66
2022/10/27 02:46:47;;;;;;;2.60;2.40;;;15.90;99.90;;;;;;5020925;28;20595;-66
2022/10/27 02:49:12;;;;;;;3.97;2.60;;;15.90;99.90;;;;;;5032366;28;20209;-66
2022/10/27 02:51:38;;;;;;;4.03;2.15;;;15.90;99.90;;;;;;5024457;28;20182;-66
2022/10/27 02:54:04;;;;;;;2.75;1.90;;;15.90;99.90;;;;;;5014434;28;20625;-66
2022/10/27 02:56:29;;;;;;;3.90;2.30;;;15.70;99.90;;;;;;5026644;28;20671;-66
2022/10/27 02:58:55;;;;;;;3.58;2.40;;;15.70;99.90;;;;;;5036580;28;20223;-66
2022/10/27 03:01:20;;;;;;;2.53;2.30;;;15.70;99.90;;;;;;5029453;28;20223;-66
2022/10/27 03:03:46;;;;;;;6.00;2.55;;;15.70;99.90;;;;;;5030405;28;20647;-65
2022/10/27 03:06:12;;;;;;;2.50;2.05;;;15.50;99.90;;;;;;5030791;28;20193;-66
2022/10/27 03:08:37;;;;;;;5.57;2.58;;;15.50;99.90;;;;;;5026186;28;20271;-66
2022/10/27 03:11:03;;;;;;;2.38;2.15;;;15.40;99.90;;;;;;5014278;28;20184;-66
2022/10/27 03:13:29;;;;;;;4.05;1.65;;;15.30;99.90;;;;;;5027281;28;20182;-65
2022/10/27 03:15:54;;;;;;;5.07;1.70;;;15.20;99.90;;;;;;5023653;28;20249;-65
2022/10/27 03:18:20;;;;;;;1.63;1.52;;;15.20;99.90;;;;;;5012956;28;20245;-66
2022/10/27 03:20:46;;;;;;;2.80;2.03;;;15.10;99.90;;;;;;5013875;28;20183;-66
2022/10/27 03:23:13;;;;;;;3.75;2.38;;;15.10;99.90;;;;;;5041447;28;20215;-66
2022/10/27 03:25:43;;;;;;;1.92;1.80;;;15.00;99.90;;;;;;5005019;28;20188;-66
2022/10/27 03:28:12;;;;;;;1.55;1.45;;;14.90;99.90;;;;;;5014588;28;20203;-66
2022/10/27 03:30:38;;;;;;;2.63;2.13;;;14.90;99.90;;;;;;5031995;28;20186;-65
2022/10/27 03:33:04;;;;;;;2.97;2.10;;;14.80;99.90;;;;;;5033527;28;20277;-65
2022/10/27 03:35:30;;;;;;;2.97;1.63;;;14.80;99.90;;;;;;5033347;28;20320;-65
2022/10/27 03:37:58;;;;;;;3.53;1.85;;;14.80;99.90;;;;;;5025239;28;20639;-65
2022/10/27 03:40:24;;;;;;;2.25;2.10;;;14.70;99.90;;;;;;5033421;28;20195;-65
2022/10/27 03:42:49;;;;;;;5.05;2.00;;;14.70;99.90;;;;;;5032957;28;20217;-65
2022/10/27 03:45:15;;;;;;;1.90;1.80;;;14.70;99.90;;;;;;5017033;28;20195;-66
2022/10/27 03:47:41;;;;;;;1.67;1.58;;;14.70;99.90;;;;;;5026009;28;20187;-66
2022/10/27 03:50:07;;;;;;;2.60;1.85;;;14.60;99.90;;;;;;5034114;28;20273;-66
2022/10/27 03:52:33;;;;;;;5.28;2.42;;;14.60;99.90;;;;;;5023607;28;20197;-66
2022/10/27 03:54:59;;;;;;;1.85;1.75;;;14.60;99.90;;;;;;5034703;28;20183;-65
2022/10/27 03:57:25;;;;;;;3.38;1.63;;;14.50;99.90;;;;;;5032901;28;20185;-66
2022/10/27 03:59:50;;;;;;;5.25;2.22;;;14.50;99.90;;;;;;5016096;28;20515;-65
2022/10/27 04:02:16;;;;;;;7.32;1.77;;;14.50;99.90;;;;;;5030092;28;20272;-66
2022/10/27 04:04:43;;;;;;;3.88;2.00;;;14.50;99.90;;;;;;5015964;28;20187;-65
2022/10/27 04:07:08;;;;;;;2.45;2.20;;;14.40;99.90;;;;;;5032763;28;20252;-66
2022/10/27 04:09:34;;;;;;;3.28;1.60;;;14.40;99.90;;;;;;5033704;28;20587;-66
2022/10/27 04:12:00;;;;;;;2.00;1.90;;;14.30;99.90;;;;;;5033093;28;20233;-65
2022/10/27 04:14:26;;;;;;;3.53;2.03;;;14.30;99.90;;;;;;5032394;28;20202;-66
2022/10/27 04:16:52;;;;;;;2.75;2.05;;;14.30;99.90;;;;;;5028176;28;20615;-65
2022/10/27 04:19:18;;;;;;;4.55;1.95;;;14.30;99.90;;;;;;5034039;28;20288;-65
2022/10/27 04:21:45;;;;;;;3.25;2.15;;;14.30;99.90;;;;;;5030620;28;20210;-65
2022/10/27 04:24:11;;;;;;;5.28;2.22;;;14.30;99.90;;;;;;5013239;28;20195;-65
2022/10/27 04:26:37;;;;;;;4.43;2.47;;;14.20;99.90;;;;;;5028632;28;20647;-65
2022/10/27 04:29:03;;;;;;;6.28;2.20;;;14.20;99.90;;;;;;5031961;28;20292;-65
2022/10/27 04:31:28;;;;;;;3.75;1.90;;;14.20;99.90;;;;;;5032351;28;20736;-65
2022/10/27 04:33:54;;;;;;;3.42;2.22;;;14.20;99.90;;;;;;5013241;28;20237;-65
2022/10/27 04:36:20;;;;;;;4.32;2.25;;;14.20;99.90;;;;;;5027154;28;20195;-65
2022/10/27 04:38:49;;;;;;;2.22;2.03;;;14.20;99.90;;;;;;5024152;28;20562;-66
2022/10/27 04:41:15;;;;;;;4.13;1.73;;;14.20;99.90;;;;;;5024612;28;20678;-66
2022/10/27 04:43:40;;;;;;;3.95;1.65;;;14.30;99.90;;;;;;5023685;28;20198;-64
2022/10/27 04:46:06;;;;;;;2.70;1.48;;;14.30;99.90;;;;;;5032032;28;20178;-66
2022/10/27 04:48:32;;;;;;;2.83;1.60;;;14.20;99.90;;;;;;5032813;28;20195;-66
2022/10/27 04:50:57;;;;;;;1.77;1.67;;;14.20;99.90;;;;;;5032810;28;20316;-65
2022/10/27 04:53:23;;;;;;;5.35;2.63;;;14.20;99.90;;;;;;5028929;28;20263;-66
2022/10/27 04:55:51;;;;;;;2.33;1.80;;;14.20;99.90;;;;;;5043073;28;20198;-66
2022/10/27 04:58:17;;;;;;;2.00;1.90;;;14.30;99.90;;;;;;5030652;28;20317;-65
2022/10/27 05:00:42;;;;;;;1.70;1.60;;;14.40;99.90;;;;;;5026866;28;20293;-65
2022/10/27 05:03:08;;;;;;;3.55;1.63;;;14.40;99.90;;;;;;5014972;28;20214;-65
2022/10/27 05:05:34;;;;;;;3.45;1.88;;;14.40;99.90;;;;;;5029184;28;20198;-65
2022/10/27 05:08:01;;;;;;;1.90;1.80;;;14.50;99.90;;;;;;5030470;28;20194;-65
2022/10/27 05:10:28;;;;;;;1.25;1.13;;;14.60;99.90;;;;;;5031311;28;20232;-65
2022/10/27 05:12:54;;;;;;;3.33;1.50;;;14.80;99.90;;;;;;5031020;28;20183;-65
2022/10/27 05:15:19;;;;;;;3.33;1.58;;;14.70;99.90;;;;;;5029983;28;20265;-65
2022/10/27 05:17:45;;;;;;;1.58;1.48;;;14.80;99.90;;;;;;5014898;28;20639;-65
2022/10/27 05:20:11;;;;;;;3.45;1.38;;;14.80;99.90;;;;;;5021665;28;20250;-67
2022/10/27 05:22:38;;;;;;;3.22;2.33;;;15.10;99.90;;;;;;5031620;28;20211;-66
2022/10/27 05:25:05;;;;;;;2.42;2.30;;;15.10;99.90;;;;;;5029983;28;20190;-65
2022/10/27 05:27:31;;;;;;;3.28;2.28;;;15.10;99.90;;;;;;5023469;28;20273;-66
2022/10/27 05:29:57;;;;;;;5.20;2.20;;;15.30;99.90;;;;;;5028187;28;20195;-66
2022/10/27 05:32:23;;;;;;;2.42;2.33;;;15.40;99.90;;;;;;4998313;28;20187;-66
2022/10/27 05:34:49;;;;;;;2.75;1.70;;;15.50;99.90;;;;;;5024690;28;20644;-65
2022/10/27 05:37:14;;;;;;;1.20;1.20;;;15.60;99.90;;;;;;5037012;28;20189;-66
2022/10/27 05:39:40;;;;;;;1.55;1.27;;;15.70;99.90;;;;;;5015841;28;20613;-65
2022/10/27 05:42:06;;;;;;;1.63;1.48;;;15.80;99.90;;;;;;5025177;28;20567;-64
2022/10/27 05:44:31;;;;;;;4.03;1.35;;;16.00;99.90;;;;;;5031444;28;20636;-64
2022/10/27 05:46:57;;;;;;;1.92;1.63;;;15.90;99.90;;;;;;5031575;28;20527;-65
2022/10/27 05:49:23;;;;;;;1.63;1.27;;;15.90;99.90;;;;;;5030559;28;20209;-65
2022/10/27 05:51:49;;;;;;;1.17;1.02;;;16.10;99.90;;;;;;5032122;28;20194;-66
2022/10/27 05:54:15;;;;;;;4.32;1.90;;;15.90;99.90;;;;;;5017644;28;20188;-66
2022/10/27 05:56:40;;;;;;;2.15;1.85;;;16.00;99.90;;;;;;5032217;28;20224;-65
2022/10/27 05:59:06;;;;;;;1.20;1.10;;;16.00;99.90;;;;;;5031222;28;20197;-66
2022/10/27 06:01:32;;;;;;;2.05;1.45;;;16.00;99.90;;;;;;5030048;28;20221;-66
2022/10/27 06:03:57;;;;;;;1.52;1.42;;;15.90;99.90;;;;;;5031379;28;20578;-69
2022/10/27 06:06:23;;;;;;;1.58;1.30;;;15.90;99.90;;;;;;5030362;28;20183;-68
2022/10/27 06:08:49;;;;;;;1.88;0.85;;;15.90;99.90;;;;;;5030912;28;20182;-68
2022/10/27 06:11:14;;;;;;;1.98;0.93;;;15.90;99.90;;;;;;5029815;28;20639;-68
2022/10/27 06:13:40;;;;;;;1.20;1.10;;;15.90;99.90;;;;;;5027520;28;20211;-68
2022/10/27 06:16:06;;;;;;;1.20;1.15;;;15.90;99.90;;;;;;5023641;28;20265;-67
2022/10/27 06:18:32;;;;;;;2.67;1.42;;;15.80;99.90;;;;;;5010658;28;20191;-67
2022/10/27 06:20:57;;;;;;;1.02;0.95;;;15.90;99.90;;;;;;5023713;28;20191;-67
2022/10/27 06:23:23;;;;;;;1.67;0.90;;;16.00;99.90;;;;;;5029498;28;20265;-68
2022/10/27 06:25:49;;;;;;;1.48;1.38;;;16.00;99.90;;;;;;5014565;28;20277;-67
2022/10/27 06:28:14;;;;;;;1.92;1.70;;;16.00;99.90;;;;;;5013685;28;20210;-67
2022/10/27 06:30:40;;;;;;;0.70;0.70;;;16.10;99.90;;;;;;5027774;28;20179;-67
2022/10/27 06:33:06;;;;;;;1.23;1.05;;;16.10;99.90;;;;;;5030265;28;20193;-67
2022/10/27 06:35:31;;;;;;;2.42;1.63;;;16.10;99.90;;;;;;5031043;28;20643;-67
2022/10/27 06:37:57;;;;;;;1.92;1.25;;;16.10;99.90;;;;;;5027311;28;20188;-67
2022/10/27 06:40:23;;;;;;;1.63;1.00;;;16.10;99.90;;;;;;5021786;28;20199;-68
2022/10/27 06:42:49;;;;;;;2.38;1.00;;;16.00;99.90;;;;;;5030160;28;20216;-68
2022/10/27 06:45:18;;;;;;;2.15;1.17;;;16.00;99.90;;;;;;5013668;28;20186;-67
2022/10/27 06:47:44;;;;;;;1.30;1.10;;;16.10;99.90;;;;;;5026790;28;20597;-68
2022/10/27 06:50:11;;;;;;;3.20;1.15;;;16.10;99.90;;;;;;5031520;28;20206;-68
2022/10/27 06:52:39;;;;;;;1.08;1.02;;;16.10;99.90;;;;;;5011669;28;20271;-67
2022/10/27 06:55:07;;;;;;;1.98;0.93;;;16.10;99.90;;;;;;5026122;28;20187;-67
2022/10/27 06:57:42;;;;;;;0.75;0.75;;;16.20;99.90;;;;;;5033961;28;20655;-68
2022/10/27 07:00:09;;;;;;;2.67;0.80;;;16.20;99.90;;;;;;5034526;28;20251;-67
2022/10/27 07:02:35;;;;;;;2.22;1.30;;;16.40;99.90;;;;;;5016726;28;20583;-70
2022/10/27 07:05:01;;;;;;;1.85;1.15;;;16.50;99.90;;;;;;5000327;28;20277;-68
2022/10/27 07:07:27;;;;;;;0.85;0.85;;;16.50;99.90;;;;;;5033222;28;20191;-68
2022/10/27 07:09:53;;;;;;;1.75;1.42;;;16.60;99.90;;;;;;5034306;28;20209;-67
2022/10/27 07:12:18;;;;;;;2.22;1.08;;;16.70;99.90;;;;;;5031510;28;20184;-68
2022/10/27 07:14:44;;;;;;;3.08;1.08;;;16.60;99.90;;;;;;5029913;28;20233;-68
2022/10/27 07:17:10;;;;;;;0.80;0.80;;;16.70;99.90;;;;;;5034161;28;20194;-68
2022/10/27 07:19:35;;;;;;;1.27;1.10;;;16.70;99.90;;;;;;5031620;28;20554;-67
2022/10/27 07:22:01;;;;;;;1.17;1.17;;;16.80;99.90;;;;;;5034237;28;20202;-69
2022/10/27 07:24:26;;;;;;;1.55;1.25;;;16.90;99.90;;;;;;4987180;28;20206;-67
2022/10/27 07:26:52;;;;;;;1.30;1.20;;;16.90;99.90;;;;;;5033934;28;20190;-67
2022/10/27 07:29:18;;;;;;;4.45;1.08;;;16.90;99.90;;;;;;5033687;28;20203;-67
2022/10/27 07:31:47;;;;;;;1.02;1.00;;;17.10;99.90;;;;;;5033459;28;20209;-68
2022/10/27 07:34:13;;;;;;;2.03;1.42;;;17.50;99.90;;;;;;5032525;28;20221;-68
2022/10/27 07:36:39;;;;;;;1.63;1.52;;;17.70;99.90;;;;;;5028215;28;20632;-68
2022/10/27 07:39:05;;;;;;;2.05;0.95;;;17.90;99.90;;;;;;5030653;28;20198;-68
2022/10/27 07:41:31;;;;;;;1.52;1.42;;;18.00;99.90;;;;;;5032821;28;20205;-67
2022/10/27 07:43:57;;;;;;;2.80;1.02;;;18.40;99.90;;;;;;5033698;28;20194;-68
2022/10/27 07:46:22;;;;;;;2.05;0.98;;;18.90;99.90;;;;;;5033546;28;20574;-68
2022/10/27 07:48:48;;;;;;;3.10;0.95;;;19.20;99.90;;;;;;5014981;28;20191;-68
2022/10/27 07:51:14;;;;;;;0.80;0.80;;;19.30;99.90;;;;;;5028858;28;20191;-68
2022/10/27 07:53:39;;;;;;;2.17;1.27;;;19.10;99.90;;;;;;5025102;28;20188;-68
2022/10/27 07:56:05;;;;;;;2.97;1.25;;;19.00;99.90;;;;;;5020197;28;20195;-68
2022/10/27 07:58:31;;;;;;;7.50;1.45;;;19.00;99.90;;;;;;5034080;28;20257;-69
2022/10/27 08:00:59;;;;;;;2.75;1.38;;;19.00;99.90;;;;;;5030622;28;20199;-69
2022/10/27 08:03:28;;;;;;;1.42;1.33;;;18.90;99.90;;;;;;5033974;28;20294;-67
2022/10/27 08:05:54;;;;;;;1.40;1.20;;;18.80;99.90;;;;;;5022783;28;20190;-68
2022/10/27 08:08:20;;;;;;;0.90;0.90;;;18.80;99.90;;;;;;5033335;28;20701;-69
2022/10/27 08:10:48;;;;;;;1.77;1.30;;;18.60;99.90;;;;;;5033003;28;20739;-67
2022/10/27 08:13:14;;;;;;;2.33;1.65;;;18.70;99.90;;;;;;5031784;28;20202;-67
2022/10/27 08:15:40;;;;;;;1.92;1.40;;;18.80;99.90;;;;;;5023770;28;20190;-68
2022/10/27 08:18:07;;;;;;;1.55;0.95;;;18.90;99.90;;;;;;5032638;28;20241;-67
2022/10/27 08:20:37;;;;;;;7.50;1.58;;;18.80;99.90;;;;;;5033672;28;20190;-67
2022/10/27 08:23:10;;;;;;;1.90;1.60;;;18.80;99.90;;;;;;5033606;28;20671;-67
2022/10/27 08:25:35;;;;;;;1.48;1.10;;;18.90;99.90;;;;;;5033683;28;20550;-68
2022/10/27 08:28:01;;;;;;;1.63;1.52;;;18.80;99.90;;;;;;5026051;28;20279;-69
2022/10/27 08:30:28;;;;;;;2.38;1.30;;;18.90;99.90;;;;;;5031673;28;20594;-68
2022/10/27 08:32:56;;;;;;;3.83;1.85;;;19.10;99.90;;;;;;5013875;28;20186;-69
2022/10/27 08:35:22;;;;;;;8.15;2.80;;;19.20;99.90;;;;;;5021156;28;20179;-68
2022/10/27 08:37:48;;;;;;;2.90;1.33;;;19.10;99.90;;;;;;5030199;28;20182;-67
2022/10/27 08:40:14;;;;;;;2.97;1.42;;;19.10;99.90;;;;;;5032453;28;20261;-68
2022/10/27 08:42:58;;;;;;;1.55;1.45;;;19.20;99.90;;;;;;5018919;28;20246;-69
2022/10/27 08:45:33;;;;;;;1.80;1.20;;;19.30;99.90;;;;;;5025727;28;20187;-68
2022/10/27 08:48:00;;;;;;;1.90;1.40;;;19.40;99.90;;;;;;5017712;28;20187;-69
2022/10/27 08:50:32;;;;;;;1.85;1.35;;;19.50;99.90;;;;;;5027848;28;20282;-69
2022/10/27 08:53:12;;;;;;;3.83;1.73;;;19.60;99.90;;;;;;5028148;28;20222;-68
2022/10/27 08:55:51;;;;;;;1.83;1.58;;;19.70;99.90;;;;;;5031846;28;20178;-68
2022/10/27 08:58:41;;;;;;;1.23;1.05;;;19.70;99.90;;;;;;5033082;28;20194;-68
2022/10/27 09:01:29;;;;;;;3.08;1.70;;;19.80;99.90;;;;;;5022548;28;20188;-69
2022/10/27 09:04:55;;;;;;;3.40;1.45;;;19.90;99.90;;;;;;5031953;28;20202;-68
2022/10/27 09:07:24;;;;;;;3.30;1.77;;;19.80;99.90;;;;;;4947692;28;20193;-68
2022/10/27 09:09:56;;;;;;;1.58;1.48;;;19.80;99.90;;;;;;4971952;28;20181;-68
2022/10/27 09:12:33;;;;;;;1.80;1.25;;;19.80;99.90;;;;;;5009160;28;20588;-68
2022/10/27 09:15:22;;;;;;;5.97;2.15;;;19.80;99.90;;;;;;5030661;28;20298;-68
2022/10/27 09:17:55;;;;;;;2.97;2.67;;;19.90;99.90;;;;;;5032718;28;20189;-68
2022/10/27 09:20:47;;;;;;;2.20;2.00;;;20.00;99.90;;;;;;5020379;28;20726;-69
2022/10/27 09:23:16;;;;;;;3.88;1.70;;;20.00;99.90;;;;;;5032120;28;20596;-69
2022/10/27 09:25:44;;;;;;;3.08;1.40;;;20.00;99.90;;;;;;5015233;28;20282;-69
2022/10/27 09:28:18;;;;;;;6.72;2.10;;;20.00;99.90;;;;;;5027836;28;20233;-67
2022/10/27 09:30:46;;;;;;;1.42;1.20;;;20.10;99.90;;;;;;5032730;28;20183;-67
2022/10/27 09:33:17;;;;;;;2.03;1.40;;;20.30;99.90;;;;;;5032719;28;20557;-68
2022/10/27 09:35:43;;;;;;;2.05;1.65;;;20.60;99.90;;;;;;5032003;28;20175;-68
2022/10/27 09:38:13;;;;;;;1.48;1.38;;;20.70;99.90;;;;;;5029092;28;20614;-69
2022/10/27 09:40:39;;;;;;;2.40;1.50;;;20.80;99.90;;;;;;5030805;28;20606;-69
2022/10/27 09:43:05;;;;;;;1.65;1.48;;;20.90;99.90;;;;;;5031845;28;20215;-69
2022/10/27 09:45:31;;;;;;;2.28;1.80;;;21.00;99.90;;;;;;5030607;28;20256;-69
2022/10/27 09:48:05;;;;;;;4.40;1.55;;;21.20;99.90;;;;;;5032600;28;20273;-69
2022/10/27 09:50:52;;;;;;;2.25;2.00;;;21.30;99.90;;;;;;5026669;28;20187;-67
2022/10/27 09:53:37;;;;;;;2.25;1.50;;;21.30;99.90;;;;;;5026836;28;20270;-68
2022/10/27 09:56:04;;;;;;;2.53;1.75;;;21.40;99.90;;;;;;5030576;28;20706;-68
2022/10/27 09:58:30;;;;;;;1.83;1.63;;;21.40;99.90;;;;;;5030212;28;20206;-68
2022/10/27 10:00:57;;;;;;;1.88;1.58;;;21.50;99.90;;;;;;5031124;28;20197;-69
2022/10/27 10:03:23;;;;;;;5.22;2.10;;;21.40;99.90;;;;;;5027587;28;20215;-69
2022/10/27 10:06:02;;;;;;;3.28;1.77;;;21.50;99.90;;;;;;5026531;28;20264;-68
2022/10/27 10:08:32;;;;;;;4.50;1.55;;;21.40;99.90;;;;;;5027471;28;20277;-68
2022/10/27 10:11:03;;;;;;;3.42;1.67;;;21.40;99.90;;;;;;5031036;28;20198;-69
2022/10/27 10:13:31;;;;;;;2.72;1.83;;;21.40;99.90;;;;;;5031924;28;20517;-68
2022/10/27 10:16:11;;;;;;;3.47;1.77;;;21.40;99.90;;;;;;5031811;28;20233;-68
2022/10/27 10:18:39;;;;;;;2.35;2.03;;;21.50;99.90;;;;;;5030587;28;20183;-69
2022/10/27 10:21:08;;;;;;;5.90;1.65;;;21.50;99.90;;;;;;5030695;28;20241;-69
2022/10/27 10:23:46;;;;;;;5.15;2.45;;;21.60;99.90;;;;;;5030954;28;20194;-68
2022/10/27 10:26:22;;;;;;;5.20;2.03;;;21.70;99.90;;;;;;5031620;28;20194;-68
2022/10/27 10:28:53;;;;;;;3.08;1.95;;;21.70;99.90;;;;;;5028681;28;20206;-69
2022/10/27 10:31:27;;;;;;;2.75;2.00;;;21.70;99.90;;;;;;5033057;28;20182;-69
2022/10/27 10:34:01;;;;;;;8.43;2.03;;;21.60;99.90;;;;;;5029662;28;20179;-68
2022/10/27 10:36:32;;;;;;;2.08;1.80;;;21.50;99.90;;;;;;5034432;28;20194;-68
2022/10/27 10:38:59;;;;;;;2.88;2.20;;;21.60;99.90;;;;;;5022886;28;20551;-69
2022/10/27 10:41:27;;;;;;;4.05;2.05;;;21.60;99.90;;;;;;5035667;28;20187;-68
2022/10/27 10:44:12;;;;;;;1.67;1.58;;;21.60;99.90;;;;;;5033991;28;20194;-68
2022/10/27 10:46:59;;;;;;;13.57;3.05;;;21.50;99.90;;;;;;5017162;28;20186;-67
2022/10/27 10:49:29;;;;;;;2.08;1.88;;;21.40;99.90;;;;;;5030563;28;20535;-69
2022/10/27 10:51:58;;;;;;;2.72;1.98;;;21.50;99.90;;;;;;5035808;28;20198;-69
2022/10/27 10:54:29;;;;;;;2.13;1.70;;;21.60;99.90;;;;;;5025368;28;20366;-69
2022/10/27 10:56:55;;;;;;;3.40;2.03;;;21.70;99.90;;;;;;5034513;28;20585;-69
2022/10/27 10:59:32;;;;;;;7.82;2.72;;;21.90;99.90;;;;;;5035473;28;20269;-68
2022/10/27 11:02:24;;;;;;;4.28;2.20;;;21.80;99.90;;;;;;5034118;28;20214;-68
2022/10/27 11:04:50;;;;;;;7.05;2.17;;;21.80;99.90;;;;;;5035025;28;20233;-69
2022/10/27 11:07:19;;;;;;;4.68;2.40;;;21.90;99.90;;;;;;5030391;28;20186;-69
2022/10/27 11:09:56;;;;;;;4.13;2.20;;;21.70;99.90;;;;;;5035069;28;21280;-68
2022/10/27 11:12:49;;;;;;;4.57;2.00;;;21.80;99.90;;;;;;5035793;28;20662;-68
2022/10/27 11:15:19;;;;;;;2.72;2.50;;;21.90;99.90;;;;;;5034363;28;20266;-68
2022/10/27 11:17:45;;;;;;;5.63;2.70;;;21.90;99.90;;;;;;5035499;28;20515;-68
2022/10/27 11:20:19;;;;;;;3.25;1.92;;;22.00;99.90;;;;;;5033449;28;20261;-69
2022/10/27 11:22:46;;;;;;;6.15;2.17;;;22.00;99.90;;;;;;5034613;28;20238;-69
2022/10/27 11:25:19;;;;;;;2.45;2.20;;;22.10;99.90;;;;;;5033327;28;20194;-69
2022/10/27 11:28:05;;;;;;;4.80;2.28;;;22.40;99.90;;;;;;5028980;28;20203;-68
2022/10/27 11:30:34;;;;;;;3.05;1.88;;;22.60;99.90;;;;;;5033636;28;21962;-69
2022/10/27 11:33:15;;;;;;;3.00;2.10;;;22.90;99.90;;;;;;5034930;28;20189;-69
2022/10/27 11:36:10;;;;;;;5.22;2.08;;;23.10;99.90;;;;;;5034192;28;20202;-68
2022/10/27 11:38:54;;;;;;;6.18;2.53;;;23.20;99.90;;;;;;5034342;28;20202;-69
2022/10/27 11:41:54;;;;;;;3.50;2.28;;;23.00;99.90;;;;;;5029313;28;20213;-68
2022/10/27 11:44:43;;;;;;;3.85;3.22;;;22.90;99.90;;;;;;5028075;28;20202;-69
2022/10/27 11:47:31;;;;;;;6.50;2.47;;;22.90;99.90;;;;;;5023679;28;20643;-68
2022/10/27 11:49:59;;;;;;;2.58;1.85;;;22.80;99.90;;;;;;5032708;28;20674;-70
2022/10/27 11:52:42;;;;;;;13.27;2.65;;;22.80;99.90;;;;;;5032302;28;20190;-69
2022/10/27 11:55:12;;;;;;;2.78;1.88;;;22.90;99.90;;;;;;5034698;28;20201;-69
2022/10/27 11:57:55;;;;;;;4.25;2.65;;;22.90;99.90;;;;;;5033606;28;20193;-69
2022/10/27 12:00:28;;;;;;;5.45;1.90;;;23.10;99.90;;;;;;5033218;28;20202;-67
2022/10/27 12:03:31;;;;;;;6.75;2.10;;;23.10;99.90;;;;;;5033851;28;20249;-68
2022/10/27 12:06:20;;;;;;;6.15;3.17;;;23.10;99.90;;;;;;4993880;28;20281;-68
2022/10/27 12:08:58;;;;;;;4.47;1.88;;;23.10;99.90;;;;;;5024610;28;20193;-68
2022/10/27 12:11:37;;;;;;;8.27;3.17;;;23.20;99.90;;;;;;5033449;28;20205;-69
2022/10/27 12:14:15;;;;;;;4.15;2.35;;;23.20;99.90;;;;;;5020008;28;20179;-67
2022/10/27 12:16:47;;;;;;;3.97;2.33;;;23.20;99.90;;;;;;5031521;28;20190;-68
2022/10/27 12:19:18;;;;;;;3.75;2.47;;;23.10;99.90;;;;;;5034774;28;20214;-68
2022/10/27 12:21:53;;;;;;;5.20;2.50;;;23.00;99.90;;;;;;5029105;28;20202;-68
2022/10/27 12:24:55;;;;;;;2.88;2.30;;;23.10;99.90;;;;;;5033187;28;20237;-68
2022/10/27 12:27:28;;;;;;;2.05;1.95;;;23.20;99.90;;;;;;5011017;28;20232;-68
2022/10/27 12:29:59;;;;;;;2.85;1.98;;;23.20;99.90;;;;;;5019847;28;20232;-68
2022/10/27 12:32:33;;;;;;;2.78;2.28;;;23.40;99.90;;;;;;5024099;28;20253;-68
2022/10/27 12:35:13;;;;;;;4.65;2.35;;;23.50;99.90;;;;;;5019260;28;20218;-68
2022/10/27 12:37:53;;;;;;;3.10;2.60;;;23.60;99.90;;;;;;5029613;28;20179;-69
2022/10/27 12:40:23;;;;;;;6.07;2.47;;;23.50;99.90;;;;;;5029300;28;20191;-66
2022/10/27 12:42:54;;;;;;;3.00;2.35;;;23.50;99.90;;;;;;5015692;28;20249;-69
2022/10/27 12:45:46;;;;;;;2.58;2.10;;;23.30;99.90;;;;;;5037716;28;20178;-68
2022/10/27 12:48:24;;;;;;;4.60;2.83;;;23.20;99.90;;;;;;5024777;28;20395;-68
2022/10/27 12:50:58;;;;;;;4.00;2.45;;;23.10;99.90;;;;;;5023441;28;20187;-68
2022/10/27 12:53:52;;;;;;;4.80;2.50;;;23.20;99.90;;;;;;5028021;28;20278;-68
2022/10/27 12:56:42;;;;;;;5.80;2.65;;;23.20;99.90;;;;;;5019172;28;20182;-68
2022/10/27 12:59:16;;;;;;;3.08;2.72;;;23.20;99.90;;;;;;5027093;28;20197;-68
2022/10/27 13:01:58;;;;;;;3.28;2.17;;;23.20;99.90;;;;;;5024249;28;20268;-68
2022/10/27 13:04:45;;;;;;;3.35;1.88;;;23.30;99.90;;;;;;5033504;28;20187;-68